sensor_id;sensor_type;location;lat;lon;timestamp;temperature;humidity
11214;DHT22;5664;48.606;13.456;2023-01-25T00:01:26;24.60;45.20
11214;DHT22;5664;48.606;13.456;2023-01-25T00:03:52;24.50;45.30
11214;DHT22;5664;48.606;13.456;2023-01-25T00:06:18;24.50;45.40
11214;DHT22;5664;48.606;13.456;2023-01-25T00:08:43;24.40;45.50
11214;DHT22;5664;48.606;13.456;2023-01-25T00:11:08;24.40;45.60
11214;DHT22;5664;48.606;13.456;2023-01-25T00:13:34;24.40;45.60
11214;DHT22;5664;48.606;13.456;2023-01-25T00:16:00;24.40;45.70
11214;DHT22;5664;48.606;13.456;2023-01-25T00:18:26;24.30;45.70
11214;DHT22;5664;48.606;13.456;2023-01-25T00:20:51;24.30;45.80
11214;DHT22;5664;48.606;13.456;2023-01-25T00:23:17;24.20;46.40
11214;DHT22;5664;48.606;13.456;2023-01-25T00:25:42;24.20;45.80
11214;DHT22;5664;48.606;13.456;2023-01-25T00:28:07;24.20;45.90
11214;DHT22;5664;48.606;13.456;2023-01-25T00:30:33;24.20;46.00
11214;DHT22;5664;48.606;13.456;2023-01-25T00:33:05;24.20;46.00
11214;DHT22;5664;48.606;13.456;2023-01-25T00:35:31;24.10;46.00
11214;DHT22;5664;48.606;13.456;2023-01-25T00:38:00;24.10;46.00
11214;DHT22;5664;48.606;13.456;2023-01-25T00:40:25;24.10;46.00
11214;DHT22;5664;48.606;13.456;2023-01-25T00:42:51;24.10;46.00
11214;DHT22;5664;48.606;13.456;2023-01-25T00:45:16;24.00;46.00
11214;DHT22;5664;48.606;13.456;2023-01-25T00:47:42;24.00;46.10
11214;DHT22;5664;48.606;13.456;2023-01-25T00:50:07;24.00;46.10
11214;DHT22;5664;48.606;13.456;2023-01-25T00:52:33;24.00;46.10
11214;DHT22;5664;48.606;13.456;2023-01-25T00:54:59;24.00;46.10
11214;DHT22;5664;48.606;13.456;2023-01-25T00:57:24;24.00;46.00
11214;DHT22;5664;48.606;13.456;2023-01-25T00:59:49;24.00;46.00
11214;DHT22;5664;48.606;13.456;2023-01-25T01:02:15;24.00;46.00
11214;DHT22;5664;48.606;13.456;2023-01-25T01:04:40;24.00;46.00
11214;DHT22;5664;48.606;13.456;2023-01-25T01:07:06;24.00;46.00
11214;DHT22;5664;48.606;13.456;2023-01-25T01:09:31;24.00;46.00
11214;DHT22;5664;48.606;13.456;2023-01-25T01:11:57;24.00;46.00
11214;DHT22;5664;48.606;13.456;2023-01-25T01:14:22;24.00;46.00
11214;DHT22;5664;48.606;13.456;2023-01-25T01:16:48;24.00;46.10
11214;DHT22;5664;48.606;13.456;2023-01-25T01:19:13;24.00;46.10
11214;DHT22;5664;48.606;13.456;2023-01-25T01:21:39;23.90;46.10
11214;DHT22;5664;48.606;13.456;2023-01-25T01:24:05;23.90;46.10
11214;DHT22;5664;48.606;13.456;2023-01-25T01:26:30;23.90;46.10
11214;DHT22;5664;48.606;13.456;2023-01-25T01:28:56;23.90;46.00
11214;DHT22;5664;48.606;13.456;2023-01-25T01:31:22;24.00;46.00
11214;DHT22;5664;48.606;13.456;2023-01-25T01:33:51;23.90;46.00
11214;DHT22;5664;48.606;13.456;2023-01-25T01:36:18;24.00;46.00
11214;DHT22;5664;48.606;13.456;2023-01-25T01:38:44;23.90;46.00
11214;DHT22;5664;48.606;13.456;2023-01-25T01:41:10;23.90;46.00
11214;DHT22;5664;48.606;13.456;2023-01-25T01:43:36;23.90;46.00
11214;DHT22;5664;48.606;13.456;2023-01-25T01:46:02;23.90;46.00
11214;DHT22;5664;48.606;13.456;2023-01-25T01:48:31;23.90;46.60
11214;DHT22;5664;48.606;13.456;2023-01-25T01:50:59;23.90;46.00
11214;DHT22;5664;48.606;13.456;2023-01-25T01:53:24;23.90;46.10
11214;DHT22;5664;48.606;13.456;2023-01-25T01:55:50;23.90;46.10
11214;DHT22;5664;48.606;13.456;2023-01-25T01:58:17;23.80;46.00
11214;DHT22;5664;48.606;13.456;2023-01-25T02:00:42;23.80;46.00
11214;DHT22;5664;48.606;13.456;2023-01-25T02:03:08;23.90;46.10
11214;DHT22;5664;48.606;13.456;2023-01-25T02:05:43;23.90;46.10
11214;DHT22;5664;48.606;13.456;2023-01-25T02:08:10;23.80;46.00
11214;DHT22;5664;48.606;13.456;2023-01-25T02:10:37;23.90;46.00
11214;DHT22;5664;48.606;13.456;2023-01-25T02:13:03;23.80;45.90
11214;DHT22;5664;48.606;13.456;2023-01-25T02:15:30;23.80;46.00
11214;DHT22;5664;48.606;13.456;2023-01-25T02:17:57;23.90;46.00
11214;DHT22;5664;48.606;13.456;2023-01-25T02:20:45;23.90;46.00
11214;DHT22;5664;48.606;13.456;2023-01-25T02:25:54;23.80;45.90
11214;DHT22;5664;48.606;13.456;2023-01-25T02:28:22;23.90;45.90
11214;DHT22;5664;48.606;13.456;2023-01-25T02:30:49;23.90;45.90
11214;DHT22;5664;48.606;13.456;2023-01-25T02:33:14;23.90;45.90
11214;DHT22;5664;48.606;13.456;2023-01-25T02:35:44;23.90;45.90
11214;DHT22;5664;48.606;13.456;2023-01-25T02:38:11;23.90;45.90
11214;DHT22;5664;48.606;13.456;2023-01-25T02:40:40;23.90;45.90
11214;DHT22;5664;48.606;13.456;2023-01-25T02:43:07;23.90;46.50
11214;DHT22;5664;48.606;13.456;2023-01-25T02:45:32;23.90;45.80
11214;DHT22;5664;48.606;13.456;2023-01-25T02:47:58;23.90;45.80
11214;DHT22;5664;48.606;13.456;2023-01-25T02:50:23;23.80;45.80
11214;DHT22;5664;48.606;13.456;2023-01-25T02:52:49;23.80;45.80
11214;DHT22;5664;48.606;13.456;2023-01-25T02:55:14;23.80;45.80
11214;DHT22;5664;48.606;13.456;2023-01-25T02:57:40;23.90;45.80
11214;DHT22;5664;48.606;13.456;2023-01-25T03:00:05;23.90;45.80
11214;DHT22;5664;48.606;13.456;2023-01-25T03:02:31;23.90;45.70
11214;DHT22;5664;48.606;13.456;2023-01-25T03:04:57;23.90;45.70
11214;DHT22;5664;48.606;13.456;2023-01-25T03:07:23;23.90;45.70
11214;DHT22;5664;48.606;13.456;2023-01-25T03:09:48;23.90;45.70
11214;DHT22;5664;48.606;13.456;2023-01-25T03:12:13;23.90;45.70
11214;DHT22;5664;48.606;13.456;2023-01-25T03:14:39;23.90;45.70
11214;DHT22;5664;48.606;13.456;2023-01-25T03:17:04;23.90;45.60
11214;DHT22;5664;48.606;13.456;2023-01-25T03:19:30;23.90;45.70
11214;DHT22;5664;48.606;13.456;2023-01-25T03:21:55;23.90;45.70
11214;DHT22;5664;48.606;13.456;2023-01-25T03:24:22;23.90;45.70
11214;DHT22;5664;48.606;13.456;2023-01-25T03:26:47;23.90;45.70
11214;DHT22;5664;48.606;13.456;2023-01-25T03:29:31;23.90;45.70
11214;DHT22;5664;48.606;13.456;2023-01-25T03:31:57;23.90;45.70
11214;DHT22;5664;48.606;13.456;2023-01-25T03:34:23;23.80;45.60
11214;DHT22;5664;48.606;13.456;2023-01-25T03:36:48;23.80;45.60
11214;DHT22;5664;48.606;13.456;2023-01-25T03:39:14;23.80;45.60
11214;DHT22;5664;48.606;13.456;2023-01-25T03:41:39;23.80;45.80
11214;DHT22;5664;48.606;13.456;2023-01-25T03:44:05;23.80;45.70
11214;DHT22;5664;48.606;13.456;2023-01-25T03:46:30;23.80;45.70
11214;DHT22;5664;48.606;13.456;2023-01-25T03:48:55;23.80;45.70
11214;DHT22;5664;48.606;13.456;2023-01-25T03:51:21;23.80;45.70
11214;DHT22;5664;48.606;13.456;2023-01-25T03:53:46;23.80;45.70
11214;DHT22;5664;48.606;13.456;2023-01-25T03:56:12;23.80;45.70
11214;DHT22;5664;48.606;13.456;2023-01-25T03:58:44;23.80;45.70
11214;DHT22;5664;48.606;13.456;2023-01-25T04:01:09;23.80;45.70
11214;DHT22;5664;48.606;13.456;2023-01-25T04:03:34;23.70;45.70
11214;DHT22;5664;48.606;13.456;2023-01-25T04:06:00;23.70;45.70
11214;DHT22;5664;48.606;13.456;2023-01-25T04:08:26;23.70;45.70
11214;DHT22;5664;48.606;13.456;2023-01-25T04:10:52;23.80;45.80
11214;DHT22;5664;48.606;13.456;2023-01-25T04:13:19;23.80;45.80
11214;DHT22;5664;48.606;13.456;2023-01-25T04:15:45;23.70;45.70
11214;DHT22;5664;48.606;13.456;2023-01-25T04:18:10;23.70;45.70
11214;DHT22;5664;48.606;13.456;2023-01-25T04:20:36;23.70;45.70
11214;DHT22;5664;48.606;13.456;2023-01-25T04:23:01;23.70;45.70
11214;DHT22;5664;48.606;13.456;2023-01-25T04:25:27;23.70;45.70
11214;DHT22;5664;48.606;13.456;2023-01-25T04:27:52;23.70;45.70
11214;DHT22;5664;48.606;13.456;2023-01-25T04:30:18;23.70;45.70
11214;DHT22;5664;48.606;13.456;2023-01-25T04:32:43;23.70;45.70
11214;DHT22;5664;48.606;13.456;2023-01-25T04:35:09;23.70;45.70
11214;DHT22;5664;48.606;13.456;2023-01-25T04:37:34;23.70;45.70
11214;DHT22;5664;48.606;13.456;2023-01-25T04:40:00;23.70;45.70
11214;DHT22;5664;48.606;13.456;2023-01-25T04:42:25;23.80;45.60
11214;DHT22;5664;48.606;13.456;2023-01-25T04:44:51;23.70;45.60
11214;DHT22;5664;48.606;13.456;2023-01-25T04:47:16;23.80;45.60
11214;DHT22;5664;48.606;13.456;2023-01-25T04:49:41;23.80;45.60
11214;DHT22;5664;48.606;13.456;2023-01-25T04:52:07;23.80;45.60
11214;DHT22;5664;48.606;13.456;2023-01-25T04:54:32;23.80;45.50
11214;DHT22;5664;48.606;13.456;2023-01-25T04:56:58;23.80;45.50
11214;DHT22;5664;48.606;13.456;2023-01-25T04:59:23;23.80;45.50
11214;DHT22;5664;48.606;13.456;2023-01-25T05:01:49;23.80;45.40
11214;DHT22;5664;48.606;13.456;2023-01-25T05:04:14;23.80;45.40
11214;DHT22;5664;48.606;13.456;2023-01-25T05:06:40;23.80;45.50
11214;DHT22;5664;48.606;13.456;2023-01-25T05:09:05;23.80;45.50
11214;DHT22;5664;48.606;13.456;2023-01-25T05:11:31;23.80;45.50
11214;DHT22;5664;48.606;13.456;2023-01-25T05:13:56;23.80;45.50
11214;DHT22;5664;48.606;13.456;2023-01-25T05:16:21;23.80;45.60
11214;DHT22;5664;48.606;13.456;2023-01-25T05:18:47;23.80;45.60
11214;DHT22;5664;48.606;13.456;2023-01-25T05:21:12;23.80;45.70
11214;DHT22;5664;48.606;13.456;2023-01-25T05:23:56;24.50;46.10
11214;DHT22;5664;48.606;13.456;2023-01-25T05:26:22;23.70;45.80
11214;DHT22;5664;48.606;13.456;2023-01-25T05:29:06;23.70;45.90
11214;DHT22;5664;48.606;13.456;2023-01-25T05:31:31;23.80;46.00
11214;DHT22;5664;48.606;13.456;2023-01-25T05:33:57;23.80;45.90
11214;DHT22;5664;48.606;13.456;2023-01-25T05:36:22;23.80;45.80
11214;DHT22;5664;48.606;13.456;2023-01-25T05:38:47;24.00;45.80
11214;DHT22;5664;48.606;13.456;2023-01-25T05:41:13;24.00;45.60
11214;DHT22;5664;48.606;13.456;2023-01-25T05:43:38;24.10;45.40
11214;DHT22;5664;48.606;13.456;2023-01-25T05:46:04;24.20;45.30
11214;DHT22;5664;48.606;13.456;2023-01-25T05:48:30;24.30;45.20
11214;DHT22;5664;48.606;13.456;2023-01-25T05:50:58;24.30;45.00
11214;DHT22;5664;48.606;13.456;2023-01-25T05:53:26;24.40;44.80
11214;DHT22;5664;48.606;13.456;2023-01-25T05:55:52;24.50;44.80
11214;DHT22;5664;48.606;13.456;2023-01-25T05:58:17;24.50;44.60
11214;DHT22;5664;48.606;13.456;2023-01-25T06:00:43;24.60;44.60
11214;DHT22;5664;48.606;13.456;2023-01-25T06:03:08;24.60;44.40
11214;DHT22;5664;48.606;13.456;2023-01-25T06:05:34;24.70;44.40
11214;DHT22;5664;48.606;13.456;2023-01-25T06:07:59;24.70;44.30
11214;DHT22;5664;48.606;13.456;2023-01-25T06:10:25;24.70;44.20
11214;DHT22;5664;48.606;13.456;2023-01-25T06:12:50;24.70;44.10
11214;DHT22;5664;48.606;13.456;2023-01-25T06:15:21;24.80;44.10
11214;DHT22;5664;48.606;13.456;2023-01-25T06:17:46;24.80;44.10
11214;DHT22;5664;48.606;13.456;2023-01-25T06:20:11;24.80;44.00
11214;DHT22;5664;48.606;13.456;2023-01-25T06:22:37;24.80;44.00
11214;DHT22;5664;48.606;13.456;2023-01-25T06:25:02;24.40;43.80
11214;DHT22;5664;48.606;13.456;2023-01-25T06:27:28;24.80;43.90
11214;DHT22;5664;48.606;13.456;2023-01-25T06:29:53;24.90;44.00
11214;DHT22;5664;48.606;13.456;2023-01-25T06:32:19;24.90;44.00
11214;DHT22;5664;48.606;13.456;2023-01-25T06:34:44;24.90;44.00
11214;DHT22;5664;48.606;13.456;2023-01-25T06:37:10;24.90;44.00
11214;DHT22;5664;48.606;13.456;2023-01-25T06:39:36;24.90;44.00
11214;DHT22;5664;48.606;13.456;2023-01-25T06:42:01;24.90;44.00
11214;DHT22;5664;48.606;13.456;2023-01-25T06:44:26;24.90;44.10
11214;DHT22;5664;48.606;13.456;2023-01-25T06:46:54;24.90;44.10
11214;DHT22;5664;48.606;13.456;2023-01-25T06:49:19;24.90;44.10
11214;DHT22;5664;48.606;13.456;2023-01-25T06:51:45;24.80;44.10
11214;DHT22;5664;48.606;13.456;2023-01-25T06:54:10;24.80;44.10
11214;DHT22;5664;48.606;13.456;2023-01-25T06:56:35;24.70;44.20
11214;DHT22;5664;48.606;13.456;2023-01-25T06:59:01;24.70;44.40
11214;DHT22;5664;48.606;13.456;2023-01-25T07:01:26;24.60;44.50
11214;DHT22;5664;48.606;13.456;2023-01-25T07:03:55;24.50;44.70
11214;DHT22;5664;48.606;13.456;2023-01-25T07:06:21;24.40;44.90
11214;DHT22;5664;48.606;13.456;2023-01-25T07:08:46;24.20;45.10
11214;DHT22;5664;48.606;13.456;2023-01-25T07:11:12;24.20;45.30
11214;DHT22;5664;48.606;13.456;2023-01-25T07:13:41;24.00;45.50
11214;DHT22;5664;48.606;13.456;2023-01-25T07:16:09;24.00;45.70
11214;DHT22;5664;48.606;13.456;2023-01-25T07:18:35;23.80;45.80
11214;DHT22;5664;48.606;13.456;2023-01-25T07:21:05;23.80;46.00
11214;DHT22;5664;48.606;13.456;2023-01-25T07:23:31;23.70;46.20
11214;DHT22;5664;48.606;13.456;2023-01-25T07:25:57;23.60;46.40
11214;DHT22;5664;48.606;13.456;2023-01-25T07:28:23;23.50;46.50
11214;DHT22;5664;48.606;13.456;2023-01-25T07:30:49;23.50;46.60
11214;DHT22;5664;48.606;13.456;2023-01-25T07:33:15;23.40;46.70
11214;DHT22;5664;48.606;13.456;2023-01-25T07:35:41;23.40;46.90
11214;DHT22;5664;48.606;13.456;2023-01-25T07:38:06;23.30;46.90
11214;DHT22;5664;48.606;13.456;2023-01-25T07:40:32;23.30;47.00
11214;DHT22;5664;48.606;13.456;2023-01-25T07:42:58;23.30;47.10
11214;DHT22;5664;48.606;13.456;2023-01-25T07:45:23;23.20;47.10
11214;DHT22;5664;48.606;13.456;2023-01-25T07:47:55;23.20;47.20
11214;DHT22;5664;48.606;13.456;2023-01-25T07:50:21;23.20;47.30
11214;DHT22;5664;48.606;13.456;2023-01-25T07:52:46;23.10;47.30
11214;DHT22;5664;48.606;13.456;2023-01-25T07:55:11;23.10;47.40
11214;DHT22;5664;48.606;13.456;2023-01-25T07:57:37;23.10;47.40
11214;DHT22;5664;48.606;13.456;2023-01-25T08:00:02;23.00;47.40
11214;DHT22;5664;48.606;13.456;2023-01-25T08:02:28;23.00;47.50
11214;DHT22;5664;48.606;13.456;2023-01-25T08:04:53;23.00;47.50
11214;DHT22;5664;48.606;13.456;2023-01-25T08:07:19;23.00;47.50
11214;DHT22;5664;48.606;13.456;2023-01-25T08:09:47;23.00;47.60
11214;DHT22;5664;48.606;13.456;2023-01-25T08:12:13;23.00;47.60
11214;DHT22;5664;48.606;13.456;2023-01-25T08:14:38;23.00;47.60
11214;DHT22;5664;48.606;13.456;2023-01-25T08:17:04;23.00;47.60
11214;DHT22;5664;48.606;13.456;2023-01-25T08:19:29;23.00;47.70
11214;DHT22;5664;48.606;13.456;2023-01-25T08:21:54;22.90;47.60
11214;DHT22;5664;48.606;13.456;2023-01-25T08:24:20;22.90;47.70
11214;DHT22;5664;48.606;13.456;2023-01-25T08:26:45;22.90;47.70
11214;DHT22;5664;48.606;13.456;2023-01-25T08:29:12;22.90;47.70
11214;DHT22;5664;48.606;13.456;2023-01-25T08:31:38;22.90;47.80
11214;DHT22;5664;48.606;13.456;2023-01-25T08:34:04;22.90;47.70
11214;DHT22;5664;48.606;13.456;2023-01-25T08:36:30;22.90;47.80
11214;DHT22;5664;48.606;13.456;2023-01-25T08:38:57;22.90;47.80
11214;DHT22;5664;48.606;13.456;2023-01-25T08:41:23;22.90;47.80
11214;DHT22;5664;48.606;13.456;2023-01-25T08:43:50;22.90;47.80
11214;DHT22;5664;48.606;13.456;2023-01-25T08:46:16;22.90;47.80
11214;DHT22;5664;48.606;13.456;2023-01-25T08:48:41;22.80;47.80
11214;DHT22;5664;48.606;13.456;2023-01-25T08:51:07;22.80;47.80
11214;DHT22;5664;48.606;13.456;2023-01-25T08:53:33;22.80;47.90
11214;DHT22;5664;48.606;13.456;2023-01-25T08:56:05;22.80;47.90
11214;DHT22;5664;48.606;13.456;2023-01-25T08:58:30;22.80;47.90
11214;DHT22;5664;48.606;13.456;2023-01-25T09:01:00;22.80;47.90
11214;DHT22;5664;48.606;13.456;2023-01-25T09:03:25;22.80;48.00
11214;DHT22;5664;48.606;13.456;2023-01-25T09:05:52;22.70;48.00
11214;DHT22;5664;48.606;13.456;2023-01-25T09:08:17;22.70;48.00
11214;DHT22;5664;48.606;13.456;2023-01-25T09:10:43;22.70;48.10
11214;DHT22;5664;48.606;13.456;2023-01-25T09:13:08;22.70;48.10
11214;DHT22;5664;48.606;13.456;2023-01-25T09:15:34;22.70;48.20
11214;DHT22;5664;48.606;13.456;2023-01-25T09:17:59;22.60;48.20
11214;DHT22;5664;48.606;13.456;2023-01-25T09:20:25;22.60;48.20
11214;DHT22;5664;48.606;13.456;2023-01-25T09:22:50;22.60;48.30
11214;DHT22;5664;48.606;13.456;2023-01-25T09:25:16;22.60;48.40
11214;DHT22;5664;48.606;13.456;2023-01-25T09:27:41;22.50;48.40
11214;DHT22;5664;48.606;13.456;2023-01-25T09:30:08;22.50;48.50
11214;DHT22;5664;48.606;13.456;2023-01-25T09:32:35;22.50;48.50
11214;DHT22;5664;48.606;13.456;2023-01-25T09:35:00;22.40;48.60
11214;DHT22;5664;48.606;13.456;2023-01-25T09:37:26;22.40;48.70
11214;DHT22;5664;48.606;13.456;2023-01-25T09:39:51;22.40;48.70
11214;DHT22;5664;48.606;13.456;2023-01-25T09:50:31;22.30;48.90
11214;DHT22;5664;48.606;13.456;2023-01-25T09:53:19;22.20;48.90
11214;DHT22;5664;48.606;13.456;2023-01-25T09:56:00;22.20;49.00
11214;DHT22;5664;48.606;13.456;2023-01-25T09:58:32;22.20;49.10
11214;DHT22;5664;48.606;13.456;2023-01-25T10:01:03;22.10;49.10
11214;DHT22;5664;48.606;13.456;2023-01-25T10:03:52;22.10;49.30
11214;DHT22;5664;48.606;13.456;2023-01-25T10:06:15;22.10;49.30
11214;DHT22;5664;48.606;13.456;2023-01-25T10:08:48;22.10;49.30
11214;DHT22;5664;48.606;13.456;2023-01-25T10:11:18;22.00;49.30
11214;DHT22;5664;48.606;13.456;2023-01-25T10:13:44;22.00;49.40
11214;DHT22;5664;48.606;13.456;2023-01-25T10:16:11;22.00;49.50
11214;DHT22;5664;48.606;13.456;2023-01-25T10:19:04;22.00;49.50
11214;DHT22;5664;48.606;13.456;2023-01-25T10:24:15;22.00;49.50
11214;DHT22;5664;48.606;13.456;2023-01-25T10:26:48;22.00;49.60
11214;DHT22;5664;48.606;13.456;2023-01-25T10:31:47;21.90;49.60
11214;DHT22;5664;48.606;13.456;2023-01-25T10:34:25;21.90;49.60
11214;DHT22;5664;48.606;13.456;2023-01-25T10:36:56;21.90;49.60
11214;DHT22;5664;48.606;13.456;2023-01-25T10:39:22;21.90;49.60
11214;DHT22;5664;48.606;13.456;2023-01-25T10:41:52;21.90;49.70
11214;DHT22;5664;48.606;13.456;2023-01-25T10:44:20;21.90;49.70
11214;DHT22;5664;48.606;13.456;2023-01-25T10:49:23;21.80;49.70
11214;DHT22;5664;48.606;13.456;2023-01-25T10:51:49;21.80;49.80
11214;DHT22;5664;48.606;13.456;2023-01-25T10:54:14;21.80;49.80
11214;DHT22;5664;48.606;13.456;2023-01-25T10:56:40;21.80;49.80
11214;DHT22;5664;48.606;13.456;2023-01-25T10:59:22;21.80;49.80
11214;DHT22;5664;48.606;13.456;2023-01-25T11:01:48;21.80;49.90
11214;DHT22;5664;48.606;13.456;2023-01-25T11:04:35;21.80;49.90
11214;DHT22;5664;48.606;13.456;2023-01-25T11:06:59;21.80;49.90
11214;DHT22;5664;48.606;13.456;2023-01-25T11:09:30;21.80;49.80
11214;DHT22;5664;48.606;13.456;2023-01-25T11:11:57;21.90;49.70
11214;DHT22;5664;48.606;13.456;2023-01-25T11:14:24;21.90;49.50
11214;DHT22;5664;48.606;13.456;2023-01-25T11:16:53;22.00;49.40
11214;DHT22;5664;48.606;13.456;2023-01-25T11:21:51;22.20;49.10
11214;DHT22;5664;48.606;13.456;2023-01-25T11:24:17;22.20;49.00
11214;DHT22;5664;48.606;13.456;2023-01-25T11:26:43;22.30;48.80
11214;DHT22;5664;48.606;13.456;2023-01-25T11:31:37;22.30;48.70
11214;DHT22;5664;48.606;13.456;2023-01-25T11:34:09;22.30;48.60
11214;DHT22;5664;48.606;13.456;2023-01-25T11:36:41;22.40;48.60
11214;DHT22;5664;48.606;13.456;2023-01-25T11:39:16;22.40;48.60
11214;DHT22;5664;48.606;13.456;2023-01-25T11:47:03;22.40;48.60
11214;DHT22;5664;48.606;13.456;2023-01-25T11:49:37;22.30;48.60
11214;DHT22;5664;48.606;13.456;2023-01-25T11:52:08;22.30;48.60
11214;DHT22;5664;48.606;13.456;2023-01-25T11:57:16;22.30;48.70
11214;DHT22;5664;48.606;13.456;2023-01-25T12:07:32;22.20;48.80
11214;DHT22;5664;48.606;13.456;2023-01-25T12:12:30;22.20;48.90
11214;DHT22;5664;48.606;13.456;2023-01-25T12:15:05;22.10;48.90
11214;DHT22;5664;48.606;13.456;2023-01-25T12:22:43;22.10;49.10
11214;DHT22;5664;48.606;13.456;2023-01-25T12:27:48;22.00;49.10
11214;DHT22;5664;48.606;13.456;2023-01-25T12:32:49;22.00;49.20
11214;DHT22;5664;48.606;13.456;2023-01-25T12:37:44;22.00;49.20
11214;DHT22;5664;48.606;13.456;2023-01-25T12:40:17;21.90;49.20
11214;DHT22;5664;48.606;13.456;2023-01-25T12:42:49;21.90;49.30
11214;DHT22;5664;48.606;13.456;2023-01-25T12:45:19;21.90;49.30
11214;DHT22;5664;48.606;13.456;2023-01-25T12:47:53;21.90;49.40
11214;DHT22;5664;48.606;13.456;2023-01-25T12:53:20;21.90;49.40
11214;DHT22;5664;48.606;13.456;2023-01-25T12:55:47;21.90;49.40
11214;DHT22;5664;48.606;13.456;2023-01-25T13:03:20;21.90;49.40
11214;DHT22;5664;48.606;13.456;2023-01-25T13:05:50;21.90;49.30
11214;DHT22;5664;48.606;13.456;2023-01-25T13:10:44;22.00;49.30
11214;DHT22;5664;48.606;13.456;2023-01-25T13:13:22;22.00;49.20
11214;DHT22;5664;48.606;13.456;2023-01-25T13:15:49;22.00;49.20
11214;DHT22;5664;48.606;13.456;2023-01-25T13:20:56;22.00;49.20
11214;DHT22;5664;48.606;13.456;2023-01-25T13:23:29;22.00;49.20
11214;DHT22;5664;48.606;13.456;2023-01-25T13:28:43;22.00;49.30
11214;DHT22;5664;48.606;13.456;2023-01-25T13:31:57;22.00;49.30
11214;DHT22;5664;48.606;13.456;2023-01-25T13:33:57;21.90;49.30
11214;DHT22;5664;48.606;13.456;2023-01-25T13:41:57;21.90;49.40
11214;DHT22;5664;48.606;13.456;2023-01-25T13:44:23;21.90;49.50
11214;DHT22;5664;48.606;13.456;2023-01-25T13:47:15;21.80;49.50
11214;DHT22;5664;48.606;13.456;2023-01-25T13:52:23;21.80;49.60
11214;DHT22;5664;48.606;13.456;2023-01-25T13:54:49;21.80;49.70
11214;DHT22;5664;48.606;13.456;2023-01-25T13:57:21;21.80;49.70
11214;DHT22;5664;48.606;13.456;2023-01-25T13:59:47;21.70;49.70
11214;DHT22;5664;48.606;13.456;2023-01-25T14:02:22;21.70;49.80
11214;DHT22;5664;48.606;13.456;2023-01-25T14:04:49;21.70;49.90
11214;DHT22;5664;48.606;13.456;2023-01-25T14:07:20;21.70;49.90
11214;DHT22;5664;48.606;13.456;2023-01-25T14:09:49;21.70;50.00
11214;DHT22;5664;48.606;13.456;2023-01-25T14:12:32;21.70;50.10
11214;DHT22;5664;48.606;13.456;2023-01-25T14:15:18;21.60;50.00
11214;DHT22;5664;48.606;13.456;2023-01-25T14:17:43;21.60;50.10
11214;DHT22;5664;48.606;13.456;2023-01-25T14:20:17;21.60;50.20
11214;DHT22;5664;48.606;13.456;2023-01-25T14:22:46;21.60;50.30
11214;DHT22;5664;48.606;13.456;2023-01-25T14:25:20;21.50;50.30
11214;DHT22;5664;48.606;13.456;2023-01-25T14:32:41;21.50;50.50
11214;DHT22;5664;48.606;13.456;2023-01-25T14:35:23;21.50;50.50
11214;DHT22;5664;48.606;13.456;2023-01-25T14:37:49;21.50;50.60
11214;DHT22;5664;48.606;13.456;2023-01-25T14:40:14;21.40;50.60
11214;DHT22;5664;48.606;13.456;2023-01-25T14:42:40;21.40;50.60
11214;DHT22;5664;48.606;13.456;2023-01-25T14:45:07;21.40;50.60
11214;DHT22;5664;48.606;13.456;2023-01-25T14:47:34;21.40;50.60
11214;DHT22;5664;48.606;13.456;2023-01-25T14:52:43;21.40;50.70
11214;DHT22;5664;48.606;13.456;2023-01-25T14:55:11;21.40;50.70
11214;DHT22;5664;48.606;13.456;2023-01-25T14:57:38;21.40;50.70
11214;DHT22;5664;48.606;13.456;2023-01-25T15:00:18;21.40;50.80
11214;DHT22;5664;48.606;13.456;2023-01-25T15:02:54;21.40;50.80
11214;DHT22;5664;48.606;13.456;2023-01-25T15:10:21;21.40;50.90
11214;DHT22;5664;48.606;13.456;2023-01-25T15:15:25;21.30;51.00
11214;DHT22;5664;48.606;13.456;2023-01-25T15:17:51;21.30;51.10
11214;DHT22;5664;48.606;13.456;2023-01-25T15:23:14;21.30;51.20
11214;DHT22;5664;48.606;13.456;2023-01-25T15:28:20;21.20;51.30
11214;DHT22;5664;48.606;13.456;2023-01-25T15:30:45;21.20;51.40
11214;DHT22;5664;48.606;13.456;2023-01-25T15:33:21;21.20;51.40
11214;DHT22;5664;48.606;13.456;2023-01-25T15:35:47;21.20;51.50
11214;DHT22;5664;48.606;13.456;2023-01-25T15:38:13;21.20;51.60
11214;DHT22;5664;48.606;13.456;2023-01-25T15:40:39;21.10;51.60
11214;DHT22;5664;48.606;13.456;2023-01-25T15:43:05;21.10;51.60
11214;DHT22;5664;48.606;13.456;2023-01-25T15:45:30;21.10;51.70
11214;DHT22;5664;48.606;13.456;2023-01-25T15:47:57;21.10;51.80
11214;DHT22;5664;48.606;13.456;2023-01-25T15:50:23;21.10;51.80
11214;DHT22;5664;48.606;13.456;2023-01-25T15:52:48;21.10;51.90
11214;DHT22;5664;48.606;13.456;2023-01-25T15:55:14;21.10;51.90
11214;DHT22;5664;48.606;13.456;2023-01-25T15:57:39;21.00;51.90
11214;DHT22;5664;48.606;13.456;2023-01-25T16:00:06;21.00;52.00
11214;DHT22;5664;48.606;13.456;2023-01-25T16:02:31;21.00;52.00
11214;DHT22;5664;48.606;13.456;2023-01-25T16:04:57;21.00;52.10
11214;DHT22;5664;48.606;13.456;2023-01-25T16:07:23;21.00;52.10
11214;DHT22;5664;48.606;13.456;2023-01-25T16:09:49;21.00;52.10
11214;DHT22;5664;48.606;13.456;2023-01-25T16:12:15;21.00;52.20
11214;DHT22;5664;48.606;13.456;2023-01-25T16:14:40;20.90;52.20
11214;DHT22;5664;48.606;13.456;2023-01-25T16:17:10;20.90;52.30
11214;DHT22;5664;48.606;13.456;2023-01-25T16:19:39;20.90;52.30
11214;DHT22;5664;48.606;13.456;2023-01-25T16:22:04;20.90;52.40
11214;DHT22;5664;48.606;13.456;2023-01-25T16:24:29;20.90;52.40
11214;DHT22;5664;48.606;13.456;2023-01-25T16:26:56;20.80;53.00
11214;DHT22;5664;48.606;13.456;2023-01-25T16:29:22;20.80;52.40
11214;DHT22;5664;48.606;13.456;2023-01-25T16:31:48;20.80;52.50
11214;DHT22;5664;48.606;13.456;2023-01-25T16:34:13;20.80;52.60
11214;DHT22;5664;48.606;13.456;2023-01-25T16:36:39;20.80;52.60
11214;DHT22;5664;48.606;13.456;2023-01-25T16:39:13;20.70;52.60
11214;DHT22;5664;48.606;13.456;2023-01-25T16:41:39;20.70;52.70
11214;DHT22;5664;48.606;13.456;2023-01-25T16:44:04;20.70;52.70
11214;DHT22;5664;48.606;13.456;2023-01-25T16:46:30;20.70;52.70
11214;DHT22;5664;48.606;13.456;2023-01-25T16:48:55;20.70;52.80
11214;DHT22;5664;48.606;13.456;2023-01-25T16:51:22;20.70;52.80
11214;DHT22;5664;48.606;13.456;2023-01-25T16:53:49;20.70;52.80
11214;DHT22;5664;48.606;13.456;2023-01-25T16:56:18;20.70;53.00
11214;DHT22;5664;48.606;13.456;2023-01-25T16:58:45;20.60;52.90
11214;DHT22;5664;48.606;13.456;2023-01-25T17:01:11;20.60;52.90
11214;DHT22;5664;48.606;13.456;2023-01-25T17:03:37;20.60;53.00
11214;DHT22;5664;48.606;13.456;2023-01-25T17:06:03;20.60;52.90
11214;DHT22;5664;48.606;13.456;2023-01-25T17:08:29;20.60;52.90
11214;DHT22;5664;48.606;13.456;2023-01-25T17:10:54;20.60;52.90